Accueil
METAR-TAF:

METAR-TAF

Aéroports :

Lancaster Airport

Lancaster, Pennsylvanie, États-Unis

latitude: 40-07-13N, longitude: 076-17-40W, altitude: 123 m

Observation

Le bulletin a été fait il y a 10 minutes, à 11:53 UTC
Vent 5 kt de ouest/nord-ouest
Température -6°C
Humidité 79%
Pression 1020 hPa
Visibilité: 16.1 km
Ciel clair

METAR: KLNS 101153Z 30005KT 10SM CLR M06/M09 A3013 RMK AO2 SLP207 T10611089 11033 21061 53009

Heure: 07:03 (12:03 UTC)

Prévision

Le bulletin a été fait il y a 18 minutes, à 11:45 UTC
Prévision valable du 10 à 12 UTC au 11 à 12 UTC
Vent 4 kt de nord-ouest
Visibilité: 10 km
Nuages épars à une hauteur de 20000 ft
A partir de 10 à 1500 UTC
Vent 6 kt de nord
Visibilité: 10 km
Quelques nuages à une hauteur de 25000 ft

TAF: KLNS 101145Z 1012/1112 31004KT P6SM SCT200 FM101500 35006KT P6SM FEW250

Observations et prévisions météorologiques de plus de 4000 aéroports (messages METAR et TAF).

Les stations disponibles sont représentées par des disques jaunes et rouges sur la carte.

Passer la souris dessus pour voir le nom de la station.

Cliquer dessus pour voir les observations et prévisions météorologiques.

Pour changer de carte: cliquez sur les boutons verts avec une croix noire pour zoomer, sur le bouton vert avec un tiret pour effectuer un zoom arrière, ou sur les flèches vertes pour les cartes adjacentes.


METAR-TAF: